sensor_id;sensor_type;location;lat;lon;timestamp;pressure;altitude;pressure_sealevel;temperature;humidity
40596;BME280;26304;48.794;9.820;2023-09-19T00:01:54;96049.44;;;19.57;68.36
40596;BME280;26304;48.794;9.820;2023-09-19T00:04:18;96040.47;;;19.36;69.36
40596;BME280;26304;48.794;9.820;2023-09-19T00:06:44;96036.72;;;19.30;69.84
40596;BME280;26304;48.794;9.820;2023-09-19T00:09:07;96025.06;;;19.31;69.66
40596;BME280;26304;48.794;9.820;2023-09-19T00:11:31;96033.66;;;19.46;69.69
40596;BME280;26304;48.794;9.820;2023-09-19T00:13:55;96027.53;;;19.71;68.58
40596;BME280;26304;48.794;9.820;2023-09-19T00:16:20;96034.22;;;19.86;67.74
40596;BME280;26304;48.794;9.820;2023-09-19T00:18:44;96043.69;;;19.84;68.13
40596;BME280;26304;48.794;9.820;2023-09-19T00:21:07;96035.34;;;19.89;67.95
40596;BME280;26304;48.794;9.820;2023-09-19T00:23:31;96036.13;;;19.86;68.38
40596;BME280;26304;48.794;9.820;2023-09-19T00:25:54;96044.75;;;19.93;68.02
40596;BME280;26304;48.794;9.820;2023-09-19T00:28:20;96049.28;;;19.89;68.18
40596;BME280;26304;48.794;9.820;2023-09-19T00:30:42;96038.34;;;19.94;67.90
40596;BME280;26304;48.794;9.820;2023-09-19T00:33:05;96041.00;;;19.87;68.17
40596;BME280;26304;48.794;9.820;2023-09-19T00:35:30;96043.63;;;19.94;68.32
40596;BME280;26304;48.794;9.820;2023-09-19T00:37:53;96036.78;;;20.01;68.15
40596;BME280;26304;48.794;9.820;2023-09-19T00:40:16;96051.53;;;19.94;68.26
40596;BME280;26304;48.794;9.820;2023-09-19T00:42:39;96053.47;;;19.87;68.38
40596;BME280;26304;48.794;9.820;2023-09-19T00:45:02;96060.53;;;20.01;68.02
40596;BME280;26304;48.794;9.820;2023-09-19T00:47:24;96063.16;;;20.01;67.96
40596;BME280;26304;48.794;9.820;2023-09-19T00:49:47;96060.53;;;20.01;67.93
40596;BME280;26304;48.794;9.820;2023-09-19T00:52:13;96049.97;;;20.04;67.87
40596;BME280;26304;48.794;9.820;2023-09-19T00:54:35;96056.75;;;20.02;68.04
40596;BME280;26304;48.794;9.820;2023-09-19T00:56:58;96056.44;;;19.96;67.93
40596;BME280;26304;48.794;9.820;2023-09-19T00:59:20;96057.16;;;19.96;68.06
40596;BME280;26304;48.794;9.820;2023-09-19T01:01:43;96053.41;;;19.94;68.14
40596;BME280;26304;48.794;9.820;2023-09-19T01:04:08;96059.81;;;19.96;68.08
40596;BME280;26304;48.794;9.820;2023-09-19T01:06:30;96068.81;;;19.99;68.12
40596;BME280;26304;48.794;9.820;2023-09-19T01:08:55;96063.47;;;20.10;67.73
40596;BME280;26304;48.794;9.820;2023-09-19T01:11:25;96060.50;;;20.08;67.95
40596;BME280;26304;48.794;9.820;2023-09-19T01:13:57;96063.50;;;20.06;67.84
40596;BME280;26304;48.794;9.820;2023-09-19T01:16:32;96059.75;;;20.07;68.12
40596;BME280;26304;48.794;9.820;2023-09-19T01:19:07;96057.88;;;20.04;67.79
40596;BME280;26304;48.794;9.820;2023-09-19T01:21:42;96051.13;;;20.00;67.52
40596;BME280;26304;48.794;9.820;2023-09-19T01:27:22;96060.19;;;19.95;67.92
40596;BME280;26304;48.794;9.820;2023-09-19T01:29:48;96075.63;;;19.96;67.62
40596;BME280;26304;48.794;9.820;2023-09-19T01:32:16;96077.16;;;19.98;67.55
40596;BME280;26304;48.794;9.820;2023-09-19T01:34:46;96072.22;;;20.00;67.34
40596;BME280;26304;48.794;9.820;2023-09-19T01:37:09;96071.13;;;19.93;67.76
40596;BME280;26304;48.794;9.820;2023-09-19T01:39:31;96073.34;;;19.99;67.56
40596;BME280;26304;48.794;9.820;2023-09-19T01:42:02;96076.34;;;20.04;67.27
40596;BME280;26304;48.794;9.820;2023-09-19T01:44:33;96075.28;;;19.91;67.58
40596;BME280;26304;48.794;9.820;2023-09-19T01:47:04;96077.53;;;19.96;67.53
40596;BME280;26304;48.794;9.820;2023-09-19T01:49:40;96081.69;;;19.93;67.34
40596;BME280;26304;48.794;9.820;2023-09-19T01:52:11;96081.66;;;19.97;67.39
40596;BME280;26304;48.794;9.820;2023-09-19T01:54:44;96072.97;;;20.00;67.23
40596;BME280;26304;48.794;9.820;2023-09-19T01:57:14;96081.66;;;19.97;67.24
40596;BME280;26304;48.794;9.820;2023-09-19T01:59:45;96085.13;;;19.80;67.53
40596;BME280;26304;48.794;9.820;2023-09-19T02:02:10;96084.06;;;19.66;68.06
40596;BME280;26304;48.794;9.820;2023-09-19T02:04:35;96087.84;;;19.58;68.39
40596;BME280;26304;48.794;9.820;2023-09-19T02:06:58;96091.53;;;19.75;67.72
40596;BME280;26304;48.794;9.820;2023-09-19T02:09:23;96091.59;;;19.60;68.12
40596;BME280;26304;48.794;9.820;2023-09-19T02:11:45;96091.59;;;19.60;68.35
40596;BME280;26304;48.794;9.820;2023-09-19T02:14:08;96099.88;;;19.77;67.70
40596;BME280;26304;48.794;9.820;2023-09-19T02:16:30;96104.31;;;19.94;67.21
40596;BME280;26304;48.794;9.820;2023-09-19T02:18:53;96098.63;;;19.92;67.18
40596;BME280;26304;48.794;9.820;2023-09-19T02:21:17;96108.91;;;19.76;67.67
40596;BME280;26304;48.794;9.820;2023-09-19T02:23:39;96105.84;;;19.81;67.66
40596;BME280;26304;48.794;9.820;2023-09-19T02:26:02;96099.50;;;19.68;68.22
40596;BME280;26304;48.794;9.820;2023-09-19T02:28:25;96096.97;;;19.35;68.85
40596;BME280;26304;48.794;9.820;2023-09-19T02:30:51;96104.41;;;19.58;68.38
40596;BME280;26304;48.794;9.820;2023-09-19T02:33:13;96104.38;;;19.73;67.72
40596;BME280;26304;48.794;9.820;2023-09-19T02:35:35;96108.16;;;19.68;67.76
40596;BME280;26304;48.794;9.820;2023-09-19T02:37:59;96114.22;;;19.58;68.06
40596;BME280;26304;48.794;9.820;2023-09-19T02:40:22;96112.63;;;19.75;68.00
40596;BME280;26304;48.794;9.820;2023-09-19T02:42:47;96115.28;;;19.75;67.87
40596;BME280;26304;48.794;9.820;2023-09-19T02:45:10;96120.25;;;19.51;68.78
40596;BME280;26304;48.794;9.820;2023-09-19T02:47:33;96121.03;;;19.48;69.05
40596;BME280;26304;48.794;9.820;2023-09-19T02:49:56;96116.84;;;19.54;68.78
40596;BME280;26304;48.794;9.820;2023-09-19T02:52:18;96120.25;;;19.58;68.83
40596;BME280;26304;48.794;9.820;2023-09-19T02:54:42;96117.94;;;19.68;68.72
40596;BME280;26304;48.794;9.820;2023-09-19T02:57:07;96118.03;;;19.42;69.43
40596;BME280;26304;48.794;9.820;2023-09-19T02:59:31;96127.44;;;19.47;69.44
40596;BME280;26304;48.794;9.820;2023-09-19T03:01:54;96119.53;;;19.47;69.32
40596;BME280;26304;48.794;9.820;2023-09-19T03:04:17;96121.75;;;19.59;68.78
40596;BME280;26304;48.794;9.820;2023-09-19T03:06:40;96128.50;;;19.68;68.69
40596;BME280;26304;48.794;9.820;2023-09-19T03:09:03;96121.72;;;19.63;68.55
40596;BME280;26304;48.794;9.820;2023-09-19T03:11:28;96130.13;;;19.26;69.98
40596;BME280;26304;48.794;9.820;2023-09-19T03:13:51;96124.81;;;19.44;69.17
40596;BME280;26304;48.794;9.820;2023-09-19T03:16:14;96132.31;;;19.52;69.04
40596;BME280;26304;48.794;9.820;2023-09-19T03:18:37;96135.31;;;19.62;68.49
40596;BME280;26304;48.794;9.820;2023-09-19T03:21:00;96139.13;;;19.39;69.36
40596;BME280;26304;48.794;9.820;2023-09-19T03:23:23;96130.47;;;19.42;69.13
40596;BME280;26304;48.794;9.820;2023-09-19T03:25:47;96135.34;;;19.40;69.39
40596;BME280;26304;48.794;9.820;2023-09-19T03:28:11;96137.66;;;19.23;69.93
40596;BME280;26304;48.794;9.820;2023-09-19T03:30:34;96133.88;;;19.32;69.61
40596;BME280;26304;48.794;9.820;2023-09-19T03:32:56;96145.94;;;19.29;69.74
40596;BME280;26304;48.794;9.820;2023-09-19T03:35:19;96145.19;;;19.21;70.41
40596;BME280;26304;48.794;9.820;2023-09-19T03:37:42;96145.91;;;19.36;70.08
40596;BME280;26304;48.794;9.820;2023-09-19T03:40:05;96139.91;;;19.36;69.80
40596;BME280;26304;48.794;9.820;2023-09-19T03:42:28;96139.84;;;19.50;69.42
40596;BME280;26304;48.794;9.820;2023-09-19T03:44:53;96139.91;;;19.36;69.80
40596;BME280;26304;48.794;9.820;2023-09-19T03:47:16;96139.88;;;19.43;69.62
40596;BME280;26304;48.794;9.820;2023-09-19T03:49:39;96139.50;;;19.41;69.70
40596;BME280;26304;48.794;9.820;2023-09-19T03:52:01;96134.66;;;19.21;70.28
40596;BME280;26304;48.794;9.820;2023-09-19T03:54:24;96141.03;;;19.31;70.35
40596;BME280;26304;48.794;9.820;2023-09-19T03:56:46;96131.56;;;19.45;69.81
40596;BME280;26304;48.794;9.820;2023-09-19T03:59:08;96131.97;;;19.47;69.49
40596;BME280;26304;48.794;9.820;2023-09-19T04:03:28;96134.22;;;19.52;69.56
40596;BME280;26304;48.794;9.820;2023-09-19T04:05:56;96135.31;;;19.51;69.38
40596;BME280;26304;48.794;9.820;2023-09-19T04:08:18;96133.81;;;19.53;69.42
40596;BME280;26304;48.794;9.820;2023-09-19T04:10:42;96138.75;;;19.40;70.16
40596;BME280;26304;48.794;9.820;2023-09-19T04:13:05;96138.38;;;19.42;70.01
40596;BME280;26304;48.794;9.820;2023-09-19T04:15:28;96137.22;;;19.50;69.73
40596;BME280;26304;48.794;9.820;2023-09-19T04:17:51;96142.84;;;19.52;70.01
40596;BME280;26304;48.794;9.820;2023-09-19T04:20:15;96138.38;;;19.46;69.89
40596;BME280;26304;48.794;9.820;2023-09-19T04:22:39;96142.88;;;19.41;70.11
40596;BME280;26304;48.794;9.820;2023-09-19T04:25:01;96143.28;;;19.26;70.72
40596;BME280;26304;48.794;9.820;2023-09-19T04:27:24;96144.44;;;19.21;71.43
40596;BME280;26304;48.794;9.820;2023-09-19T04:29:46;96142.22;;;19.09;71.74
40596;BME280;26304;48.794;9.820;2023-09-19T04:32:08;96145.22;;;19.11;71.94
40596;BME280;26304;48.794;9.820;2023-09-19T04:34:31;96150.44;;;19.29;71.29
40596;BME280;26304;48.794;9.820;2023-09-19T04:36:56;96162.06;;;19.49;70.24
40596;BME280;26304;48.794;9.820;2023-09-19T04:39:19;96159.41;;;19.64;69.22
40596;BME280;26304;48.794;9.820;2023-09-19T04:41:42;96163.56;;;19.61;69.59
40596;BME280;26304;48.794;9.820;2023-09-19T04:44:06;96160.19;;;19.53;70.41
40596;BME280;26304;48.794;9.820;2023-09-19T04:46:28;96166.59;;;19.52;70.46
40596;BME280;26304;48.794;9.820;2023-09-19T04:48:51;96163.97;;;19.41;70.72
40596;BME280;26304;48.794;9.820;2023-09-19T04:51:13;96158.38;;;19.32;71.34
40596;BME280;26304;48.794;9.820;2023-09-19T04:53:37;96157.25;;;19.19;71.88
40596;BME280;26304;48.794;9.820;2023-09-19T04:55:59;96159.09;;;19.26;71.41
40596;BME280;26304;48.794;9.820;2023-09-19T04:58:22;96169.28;;;19.23;71.66
40596;BME280;26304;48.794;9.820;2023-09-19T05:00:45;96165.91;;;19.34;71.25
40596;BME280;26304;48.794;9.820;2023-09-19T05:03:07;96175.69;;;19.15;71.93
40596;BME280;26304;48.794;9.820;2023-09-19T05:05:30;96171.56;;;19.21;71.54
40596;BME280;26304;48.794;9.820;2023-09-19T05:07:52;96179.44;;;19.25;71.28
40596;BME280;26304;48.794;9.820;2023-09-19T05:10:16;96182.09;;;19.21;71.39
40596;BME280;26304;48.794;9.820;2023-09-19T05:12:40;96180.19;;;19.22;71.83
40596;BME280;26304;48.794;9.820;2023-09-19T05:15:03;96185.09;;;19.23;71.23
40596;BME280;26304;48.794;9.820;2023-09-19T05:17:26;96188.13;;;19.18;71.66
40596;BME280;26304;48.794;9.820;2023-09-19T05:19:48;96191.47;;;19.22;71.59
40596;BME280;26304;48.794;9.820;2023-09-19T05:22:10;96194.88;;;19.23;71.37
40596;BME280;26304;48.794;9.820;2023-09-19T05:24:33;96191.13;;;19.17;71.74
40596;BME280;26304;48.794;9.820;2023-09-19T05:26:57;96192.25;;;19.19;71.70
40596;BME280;26304;48.794;9.820;2023-09-19T05:29:20;96199.41;;;19.26;71.23
40596;BME280;26304;48.794;9.820;2023-09-19T05:31:43;96194.13;;;19.30;71.47
40596;BME280;26304;48.794;9.820;2023-09-19T05:34:05;96199.38;;;19.40;71.00
40596;BME280;26304;48.794;9.820;2023-09-19T05:36:28;96187.69;;;19.49;70.57
40596;BME280;26304;48.794;9.820;2023-09-19T05:38:51;96195.94;;;19.62;69.45
40596;BME280;26304;48.794;9.820;2023-09-19T05:41:14;96202.72;;;19.70;69.28
40596;BME280;26304;48.794;9.820;2023-09-19T05:43:38;96197.44;;;19.77;68.95
40596;BME280;26304;48.794;9.820;2023-09-19T05:46:02;96203.06;;;19.86;68.95
40596;BME280;26304;48.794;9.820;2023-09-19T05:48:24;96203.06;;;19.90;68.77
40596;BME280;26304;48.794;9.820;2023-09-19T05:50:46;96212.13;;;19.85;68.82
40596;BME280;26304;48.794;9.820;2023-09-19T05:53:09;96213.59;;;19.86;69.03
40596;BME280;26304;48.794;9.820;2023-09-19T05:55:33;96218.88;;;19.86;69.01
40596;BME280;26304;48.794;9.820;2023-09-19T05:57:56;96218.53;;;19.84;68.80
40596;BME280;26304;48.794;9.820;2023-09-19T06:00:20;96225.31;;;19.85;68.43
40596;BME280;26304;48.794;9.820;2023-09-19T06:02:44;96227.19;;;19.88;68.52
40596;BME280;26304;48.794;9.820;2023-09-19T06:05:07;96226.06;;;19.86;68.82
40596;BME280;26304;48.794;9.820;2023-09-19T06:07:31;96237.34;;;19.86;68.82
40596;BME280;26304;48.794;9.820;2023-09-19T06:09:57;96233.19;;;19.92;68.54
40596;BME280;26304;48.794;9.820;2023-09-19T06:12:20;96249.00;;;19.92;68.34
40596;BME280;26304;48.794;9.820;2023-09-19T06:14:42;96246.78;;;19.94;68.64
40596;BME280;26304;48.794;9.820;2023-09-19T06:17:06;96244.50;;;19.93;68.46
40596;BME280;26304;48.794;9.820;2023-09-19T06:19:28;96240.75;;;19.90;68.31
40596;BME280;26304;48.794;9.820;2023-09-19T06:21:52;96236.97;;;19.91;68.60
40596;BME280;26304;48.794;9.820;2023-09-19T06:24:15;96243.00;;;19.88;68.84
40596;BME280;26304;48.794;9.820;2023-09-19T06:26:37;96248.66;;;19.90;68.65
40596;BME280;26304;48.794;9.820;2023-09-19T06:28:59;96255.44;;;19.91;68.57
40596;BME280;26304;48.794;9.820;2023-09-19T06:31:22;96251.66;;;19.92;68.65
40596;BME280;26304;48.794;9.820;2023-09-19T06:33:48;96258.81;;;19.92;68.67
40596;BME280;26304;48.794;9.820;2023-09-19T06:36:11;96250.16;;;19.91;68.84
40596;BME280;26304;48.794;9.820;2023-09-19T06:38:33;96255.44;;;19.91;69.29
40596;BME280;26304;48.794;9.820;2023-09-19T06:40:58;96264.47;;;19.90;68.99
40596;BME280;26304;48.794;9.820;2023-09-19T06:43:22;96275.41;;;19.92;68.99
40596;BME280;26304;48.794;9.820;2023-09-19T06:45:45;96283.69;;;19.94;68.91
40596;BME280;26304;48.794;9.820;2023-09-19T06:48:08;96285.97;;;19.96;68.87
40596;BME280;26304;48.794;9.820;2023-09-19T06:50:32;96293.50;;;19.98;68.77
40596;BME280;26304;48.794;9.820;2023-09-19T06:52:55;96287.44;;;19.97;68.68
40596;BME280;26304;48.794;9.820;2023-09-19T06:55:22;96301.00;;;19.99;68.92
40596;BME280;26304;48.794;9.820;2023-09-19T06:57:46;96306.69;;;19.98;68.67
40596;BME280;26304;48.794;9.820;2023-09-19T07:00:09;96308.53;;;20.01;69.07
40596;BME280;26304;48.794;9.820;2023-09-19T07:02:36;96317.97;;;20.02;68.85
40596;BME280;26304;48.794;9.820;2023-09-19T07:04:58;96317.25;;;19.98;68.63
40596;BME280;26304;48.794;9.820;2023-09-19T07:07:23;96316.09;;;20.02;68.72
40596;BME280;26304;48.794;9.820;2023-09-19T07:09:45;96321.34;;;20.02;68.55
40596;BME280;26304;48.794;9.820;2023-09-19T07:12:10;96319.84;;;20.05;68.84
40596;BME280;26304;48.794;9.820;2023-09-19T07:14:33;96321.38;;;20.06;68.63
40596;BME280;26304;48.794;9.820;2023-09-19T07:16:55;96312.31;;;20.07;68.62
40596;BME280;26304;48.794;9.820;2023-09-19T07:19:18;96325.88;;;20.09;68.56
40596;BME280;26304;48.794;9.820;2023-09-19T07:21:40;96322.09;;;20.17;68.86
40596;BME280;26304;48.794;9.820;2023-09-19T07:24:05;96333.00;;;20.19;69.08
40596;BME280;26304;48.794;9.820;2023-09-19T07:26:29;96334.91;;;20.22;69.20
40596;BME280;26304;48.794;9.820;2023-09-19T07:28:52;96326.94;;;20.33;68.46
40596;BME280;26304;48.794;9.820;2023-09-19T07:31:14;96337.13;;;20.27;68.70
40596;BME280;26304;48.794;9.820;2023-09-19T07:33:38;96340.13;;;20.29;68.49
40596;BME280;26304;48.794;9.820;2023-09-19T07:36:01;96341.66;;;20.30;68.65
40596;BME280;26304;48.794;9.820;2023-09-19T07:38:23;96337.16;;;20.24;68.47
40596;BME280;26304;48.794;9.820;2023-09-19T07:40:48;96329.25;;;20.17;68.68
40596;BME280;26304;48.794;9.820;2023-09-19T07:43:11;96333.03;;;20.16;68.72
40596;BME280;26304;48.794;9.820;2023-09-19T07:45:33;96342.44;;;20.20;68.34
40596;BME280;26304;48.794;9.820;2023-09-19T07:47:57;96341.31;;;20.25;68.30
40596;BME280;26304;48.794;9.820;2023-09-19T07:50:21;96349.97;;;20.25;68.04
40596;BME280;26304;48.794;9.820;2023-09-19T07:52:44;96356.72;;;20.33;67.62
40596;BME280;26304;48.794;9.820;2023-09-19T07:55:07;96361.28;;;20.33;67.91
40596;BME280;26304;48.794;9.820;2023-09-19T07:57:33;96352.56;;;20.32;68.08
40596;BME280;26304;48.794;9.820;2023-09-19T07:59:56;96358.22;;;20.38;67.85
40596;BME280;26304;48.794;9.820;2023-09-19T08:02:19;96358.59;;;20.44;67.95
40596;BME280;26304;48.794;9.820;2023-09-19T08:04:42;96361.63;;;20.39;67.99
40596;BME280;26304;48.794;9.820;2023-09-19T08:07:04;96365.03;;;20.39;68.73
40596;BME280;26304;48.794;9.820;2023-09-19T08:09:27;96362.00;;;20.37;68.08
40596;BME280;26304;48.794;9.820;2023-09-19T08:11:54;96366.16;;;20.38;67.96
40596;BME280;26304;48.794;9.820;2023-09-19T08:14:17;96372.94;;;20.43;67.63
40596;BME280;26304;48.794;9.820;2023-09-19T08:16:40;96376.31;;;20.43;68.16
40596;BME280;26304;48.794;9.820;2023-09-19T08:19:03;96387.25;;;20.49;68.16
40596;BME280;26304;48.794;9.820;2023-09-19T08:21:26;96384.22;;;20.50;68.55
40596;BME280;26304;48.794;9.820;2023-09-19T08:23:51;96398.94;;;20.55;68.46
40596;BME280;26304;48.794;9.820;2023-09-19T08:26:13;96393.63;;;20.59;68.29
40596;BME280;26304;48.794;9.820;2023-09-19T08:28:36;96396.28;;;20.55;68.20
40596;BME280;26304;48.794;9.820;2023-09-19T08:31:03;96394.03;;;20.54;68.23
40596;BME280;26304;48.794;9.820;2023-09-19T08:33:26;96391.78;;;20.52;68.02
40596;BME280;26304;48.794;9.820;2023-09-19T08:35:49;96390.63;;;20.49;68.18
40596;BME280;26304;48.794;9.820;2023-09-19T08:38:11;96392.16;;;20.47;68.33
40596;BME280;26304;48.794;9.820;2023-09-19T08:40:37;96392.91;;;20.51;68.30
40596;BME280;26304;48.794;9.820;2023-09-19T08:43:00;96387.63;;;20.51;67.97
40596;BME280;26304;48.794;9.820;2023-09-19T08:45:24;96386.09;;;20.50;68.15
40596;BME280;26304;48.794;9.820;2023-09-19T08:47:56;96383.06;;;20.51;67.76
40596;BME280;26304;48.794;9.820;2023-09-19T08:50:26;96395.91;;;20.53;67.76
40596;BME280;26304;48.794;9.820;2023-09-19T08:52:51;96395.91;;;20.53;67.70
40596;BME280;26304;48.794;9.820;2023-09-19T08:55:15;96395.91;;;20.53;67.78
40596;BME280;26304;48.794;9.820;2023-09-19T08:57:43;96397.41;;;20.54;67.58
40596;BME280;26304;48.794;9.820;2023-09-19T09:00:11;96394.78;;;20.54;67.71
40596;BME280;26304;48.794;9.820;2023-09-19T09:02:38;96392.53;;;20.53;67.70
40596;BME280;26304;48.794;9.820;2023-09-19T09:05:04;96397.41;;;20.54;67.83
40596;BME280;26304;48.794;9.820;2023-09-19T09:07:28;96399.69;;;20.56;67.64
40596;BME280;26304;48.794;9.820;2023-09-19T09:09:50;96398.56;;;20.57;67.54
40596;BME280;26304;48.794;9.820;2023-09-19T09:12:14;96400.81;;;20.58;67.53
40596;BME280;26304;48.794;9.820;2023-09-19T09:14:36;96397.03;;;20.56;67.84
40596;BME280;26304;48.794;9.820;2023-09-19T09:16:59;96398.16;;;20.58;67.65
40596;BME280;26304;48.794;9.820;2023-09-19T09:19:22;96403.03;;;20.60;67.61
40596;BME280;26304;48.794;9.820;2023-09-19T09:21:47;96407.94;;;20.61;67.57
40596;BME280;26304;48.794;9.820;2023-09-19T09:24:28;96411.75;;;20.64;67.65
40596;BME280;26304;48.794;9.820;2023-09-19T09:26:51;96411.75;;;20.60;67.67
40596;BME280;26304;48.794;9.820;2023-09-19T09:29:14;96404.94;;;20.59;67.65
40596;BME280;26304;48.794;9.820;2023-09-19T09:31:36;96414.75;;;20.62;67.61
40596;BME280;26304;48.794;9.820;2023-09-19T09:34:00;96414.75;;;20.62;67.52
40596;BME280;26304;48.794;9.820;2023-09-19T09:36:38;96408.34;;;20.63;67.44
40596;BME280;26304;48.794;9.820;2023-09-19T09:39:04;96407.22;;;20.64;67.49
40596;BME280;26304;48.794;9.820;2023-09-19T09:41:39;96405.69;;;20.63;67.61
40596;BME280;26304;48.794;9.820;2023-09-19T09:44:12;96404.19;;;20.62;67.46
40596;BME280;26304;48.794;9.820;2023-09-19T09:46:42;96401.94;;;20.64;67.36
40596;BME280;26304;48.794;9.820;2023-09-19T09:49:36;96402.69;;;20.65;67.28
40596;BME280;26304;48.794;9.820;2023-09-19T09:52:01;96410.25;;;20.66;67.30
40596;BME280;26304;48.794;9.820;2023-09-19T09:54:29;96410.59;;;20.68;67.21
40596;BME280;26304;48.794;9.820;2023-09-19T09:56:58;96413.25;;;20.68;67.22
40596;BME280;26304;48.794;9.820;2023-09-19T09:59:21;96402.69;;;20.68;67.23
40596;BME280;26304;48.794;9.820;2023-09-19T10:01:48;96413.25;;;20.68;67.25
40596;BME280;26304;48.794;9.820;2023-09-19T10:04:11;96414.00;;;20.69;67.25
40596;BME280;26304;48.794;9.820;2023-09-19T10:06:40;96411.72;;;20.67;67.48
40596;BME280;26304;48.794;9.820;2023-09-19T10:09:09;96410.22;;;20.70;67.33
40596;BME280;26304;48.794;9.820;2023-09-19T10:11:43;96404.94;;;20.70;67.28
40596;BME280;26304;48.794;9.820;2023-09-19T10:14:06;96402.69;;;20.68;67.58
40596;BME280;26304;48.794;9.820;2023-09-19T10:16:32;96405.31;;;20.68;67.58
40596;BME280;26304;48.794;9.820;2023-09-19T10:18:58;96399.66;;;20.70;67.18
40596;BME280;26304;48.794;9.820;2023-09-19T10:21:24;96407.97;;;20.68;67.34
40596;BME280;26304;48.794;9.820;2023-09-19T10:23:49;96401.91;;;20.72;67.25
40596;BME280;26304;48.794;9.820;2023-09-19T10:26:16;96402.66;;;20.72;67.04
40596;BME280;26304;48.794;9.820;2023-09-19T10:28:40;96405.31;;;20.72;67.00
40596;BME280;26304;48.794;9.820;2023-09-19T10:31:03;96393.59;;;20.73;66.96
40596;BME280;26304;48.794;9.820;2023-09-19T10:33:36;96404.91;;;20.74;66.96
40596;BME280;26304;48.794;9.820;2023-09-19T10:35:59;96404.19;;;20.73;66.85
40596;BME280;26304;48.794;9.820;2023-09-19T10:38:24;96398.50;;;20.75;66.91
40596;BME280;26304;48.794;9.820;2023-09-19T10:40:49;96403.41;;;20.76;67.00
40596;BME280;26304;48.794;9.820;2023-09-19T10:43:15;96391.31;;;20.79;66.72
40596;BME280;26304;48.794;9.820;2023-09-19T10:45:43;96396.63;;;20.72;67.24
40596;BME280;26304;48.794;9.820;2023-09-19T10:48:06;96397.75;;;20.71;67.22
40596;BME280;26304;48.794;9.820;2023-09-19T10:50:33;96389.84;;;20.74;67.12
40596;BME280;26304;48.794;9.820;2023-09-19T10:53:00;96397.34;;;20.76;66.84
40596;BME280;26304;48.794;9.820;2023-09-19T10:55:27;96395.09;;;20.78;66.85
40596;BME280;26304;48.794;9.820;2023-09-19T10:57:51;96400.00;;;20.79;66.96
40596;BME280;26304;48.794;9.820;2023-09-19T11:00:14;96400.75;;;20.80;66.75
40596;BME280;26304;48.794;9.820;2023-09-19T11:03:17;96398.09;;;20.80;66.78
40596;BME280;26304;48.794;9.820;2023-09-19T11:06:00;96400.38;;;20.81;66.71
40596;BME280;26304;48.794;9.820;2023-09-19T11:08:25;96395.47;;;20.80;66.68
40596;BME280;26304;48.794;9.820;2023-09-19T11:10:48;96398.84;;;20.80;66.71
40596;BME280;26304;48.794;9.820;2023-09-19T11:13:24;96395.81;;;20.82;66.82
40596;BME280;26304;48.794;9.820;2023-09-19T11:16:11;96394.34;;;20.81;66.66
40596;BME280;26304;48.794;9.820;2023-09-19T11:18:54;96391.31;;;20.82;66.74
40596;BME280;26304;48.794;9.820;2023-09-19T11:21:41;96387.53;;;20.83;66.60
40596;BME280;26304;48.794;9.820;2023-09-19T11:24:29;96381.84;;;20.85;66.42
40596;BME280;26304;48.794;9.820;2023-09-19T11:27:10;96382.22;;;20.83;66.28
40596;BME280;26304;48.794;9.820;2023-09-19T11:29:33;96369.78;;;20.84;66.51
40596;BME280;26304;48.794;9.820;2023-09-19T11:31:57;96372.44;;;20.84;66.54
40596;BME280;26304;48.794;9.820;2023-09-19T11:40:34;96376.19;;;20.86;65.92
40596;BME280;26304;48.794;9.820;2023-09-19T11:42:56;96375.06;;;20.88;66.23
40596;BME280;26304;48.794;9.820;2023-09-19T11:48:23;96370.50;;;20.88;66.09
40596;BME280;26304;48.794;9.820;2023-09-19T11:50:46;96365.22;;;20.88;66.16
40596;BME280;26304;48.794;9.820;2023-09-19T11:53:10;96368.66;;;20.89;66.03
40596;BME280;26304;48.794;9.820;2023-09-19T11:55:34;96366.75;;;20.89;65.97
40596;BME280;26304;48.794;9.820;2023-09-19T11:57:56;96360.34;;;20.90;65.91
40596;BME280;26304;48.794;9.820;2023-09-19T12:00:19;96358.44;;;20.91;65.95
40596;BME280;26304;48.794;9.820;2023-09-19T12:02:46;96363.72;;;20.91;65.86
40596;BME280;26304;48.794;9.820;2023-09-19T12:05:09;96355.78;;;20.91;65.84
40596;BME280;26304;48.794;9.820;2023-09-19T12:07:42;96351.25;;;20.91;65.77
40596;BME280;26304;48.794;9.820;2023-09-19T12:10:06;96345.97;;;20.91;65.55
40596;BME280;26304;48.794;9.820;2023-09-19T12:12:34;96345.97;;;20.91;65.44
40596;BME280;26304;48.794;9.820;2023-09-19T12:14:57;96346.31;;;20.93;65.41
40596;BME280;26304;48.794;9.820;2023-09-19T12:17:20;96345.94;;;20.95;65.25
40596;BME280;26304;48.794;9.820;2023-09-19T12:19:49;96330.84;;;20.95;64.98
40596;BME280;26304;48.794;9.820;2023-09-19T12:22:12;96332.34;;;20.96;65.10
40596;BME280;26304;48.794;9.820;2023-09-19T12:24:35;96328.56;;;20.97;64.97
40596;BME280;26304;48.794;9.820;2023-09-19T12:27:03;96332.72;;;20.98;65.05
40596;BME280;26304;48.794;9.820;2023-09-19T12:29:30;96342.91;;;21.00;64.81
40596;BME280;26304;48.794;9.820;2023-09-19T12:31:53;96335.38;;;20.98;65.05
40596;BME280;26304;48.794;9.820;2023-09-19T12:34:22;96334.22;;;20.99;64.88
40596;BME280;26304;48.794;9.820;2023-09-19T12:36:47;96330.44;;;21.00;64.77
40596;BME280;26304;48.794;9.820;2023-09-19T12:39:09;96333.44;;;21.02;64.70
40596;BME280;26304;48.794;9.820;2023-09-19T12:41:32;96336.09;;;21.02;64.72
40596;BME280;26304;48.794;9.820;2023-09-19T12:43:55;96334.97;;;21.03;64.71
40596;BME280;26304;48.794;9.820;2023-09-19T12:46:21;96332.31;;;21.03;64.52
40596;BME280;26304;48.794;9.820;2023-09-19T12:48:46;96330.78;;;21.02;64.16
40596;BME280;26304;48.794;9.820;2023-09-19T12:51:10;96326.28;;;21.03;64.18
40596;BME280;26304;48.794;9.820;2023-09-19T12:53:34;96324.38;;;21.03;64.03
40596;BME280;26304;48.794;9.820;2023-09-19T12:56:01;96323.25;;;21.04;63.89
40596;BME280;26304;48.794;9.820;2023-09-19T12:58:23;96331.19;;;21.04;63.75
40596;BME280;26304;48.794;9.820;2023-09-19T13:00:46;96322.09;;;21.05;63.62
40596;BME280;26304;48.794;9.820;2023-09-19T13:03:16;96319.44;;;21.09;63.57